sensor_id;sensor_type;location;lat;lon;timestamp;temperature;humidity
20284;DHT22;10301;50.832;4.080;2022-12-07T00:01:37;6.00;91.60
20284;DHT22;10301;50.832;4.080;2022-12-07T00:04:05;6.00;91.70
20284;DHT22;10301;50.832;4.080;2022-12-07T00:06:43;5.90;91.90
20284;DHT22;10301;50.832;4.080;2022-12-07T00:09:14;5.80;93.00
20284;DHT22;10301;50.832;4.080;2022-12-07T00:11:40;6.10;93.10
20284;DHT22;10301;50.832;4.080;2022-12-07T00:14:09;6.00;92.20
20284;DHT22;10301;50.832;4.080;2022-12-07T00:16:36;5.90;92.50
20284;DHT22;10301;50.832;4.080;2022-12-07T00:19:03;6.00;91.90
20284;DHT22;10301;50.832;4.080;2022-12-07T00:21:33;6.00;91.60
20284;DHT22;10301;50.832;4.080;2022-12-07T00:24:00;6.00;91.70
20284;DHT22;10301;50.832;4.080;2022-12-07T00:26:28;6.10;91.60
20284;DHT22;10301;50.832;4.080;2022-12-07T00:29:06;6.10;91.70
20284;DHT22;10301;50.832;4.080;2022-12-07T00:31:35;6.20;92.00
20284;DHT22;10301;50.832;4.080;2022-12-07T00:34:07;6.00;91.70
20284;DHT22;10301;50.832;4.080;2022-12-07T00:36:36;6.20;92.40
20284;DHT22;10301;50.832;4.080;2022-12-07T00:39:03;6.30;91.50
20284;DHT22;10301;50.832;4.080;2022-12-07T00:41:29;6.50;88.00
20284;DHT22;10301;50.832;4.080;2022-12-07T00:43:55;6.30;85.80
20284;DHT22;10301;50.832;4.080;2022-12-07T00:46:22;6.10;87.40
20284;DHT22;10301;50.832;4.080;2022-12-07T00:48:50;5.90;90.30
20284;DHT22;10301;50.832;4.080;2022-12-07T00:51:21;5.80;91.10
20284;DHT22;10301;50.832;4.080;2022-12-07T00:53:48;5.80;91.70
20284;DHT22;10301;50.832;4.080;2022-12-07T00:56:33;5.60;91.70
20284;DHT22;10301;50.832;4.080;2022-12-07T00:59:00;5.40;92.60
20284;DHT22;10301;50.832;4.080;2022-12-07T01:01:29;5.40;93.80
20284;DHT22;10301;50.832;4.080;2022-12-07T01:03:55;5.60;94.20
20284;DHT22;10301;50.832;4.080;2022-12-07T01:06:22;5.70;93.60
20284;DHT22;10301;50.832;4.080;2022-12-07T01:08:48;5.70;93.50
20284;DHT22;10301;50.832;4.080;2022-12-07T01:11:17;5.90;93.20
20284;DHT22;10301;50.832;4.080;2022-12-07T01:13:43;6.00;93.10
20284;DHT22;10301;50.832;4.080;2022-12-07T01:16:12;6.00;92.50
20284;DHT22;10301;50.832;4.080;2022-12-07T01:18:38;5.90;91.90
20284;DHT22;10301;50.832;4.080;2022-12-07T01:21:10;5.70;91.60
20284;DHT22;10301;50.832;4.080;2022-12-07T01:23:36;5.70;92.30
20284;DHT22;10301;50.832;4.080;2022-12-07T01:26:07;5.70;92.40
20284;DHT22;10301;50.832;4.080;2022-12-07T01:28:35;5.90;91.90
20284;DHT22;10301;50.832;4.080;2022-12-07T01:33:29;5.80;90.40
20284;DHT22;10301;50.832;4.080;2022-12-07T01:36:01;5.80;90.80
20284;DHT22;10301;50.832;4.080;2022-12-07T01:38:27;5.90;91.20
20284;DHT22;10301;50.832;4.080;2022-12-07T01:40:55;6.00;90.70
20284;DHT22;10301;50.832;4.080;2022-12-07T01:43:22;6.00;90.90
20284;DHT22;10301;50.832;4.080;2022-12-07T01:45:49;6.10;90.60
20284;DHT22;10301;50.832;4.080;2022-12-07T01:48:17;6.10;90.50
20284;DHT22;10301;50.832;4.080;2022-12-07T01:50:45;6.20;90.70
20284;DHT22;10301;50.832;4.080;2022-12-07T01:53:13;6.30;90.90
20284;DHT22;10301;50.832;4.080;2022-12-07T01:55:42;6.50;89.40
20284;DHT22;10301;50.832;4.080;2022-12-07T01:58:10;6.40;88.10
20284;DHT22;10301;50.832;4.080;2022-12-07T02:00:36;6.40;89.80
20284;DHT22;10301;50.832;4.080;2022-12-07T02:03:16;6.40;89.80
20284;DHT22;10301;50.832;4.080;2022-12-07T02:05:43;6.30;89.80
20284;DHT22;10301;50.832;4.080;2022-12-07T02:08:12;6.20;90.50
20284;DHT22;10301;50.832;4.080;2022-12-07T02:10:38;6.20;89.20
20284;DHT22;10301;50.832;4.080;2022-12-07T02:13:11;6.20;89.10
20284;DHT22;10301;50.832;4.080;2022-12-07T02:21:07;6.10;90.20
20284;DHT22;10301;50.832;4.080;2022-12-07T02:26:48;6.00;88.50
20284;DHT22;10301;50.832;4.080;2022-12-07T02:29:47;6.00;89.10
20284;DHT22;10301;50.832;4.080;2022-12-07T02:32:28;5.90;88.00
20284;DHT22;10301;50.832;4.080;2022-12-07T02:40:22;6.10;90.00
20284;DHT22;10301;50.832;4.080;2022-12-07T02:43:02;6.00;91.00
20284;DHT22;10301;50.832;4.080;2022-12-07T02:45:31;5.90;91.50
20284;DHT22;10301;50.832;4.080;2022-12-07T02:47:59;5.80;92.00
20284;DHT22;10301;50.832;4.080;2022-12-07T02:50:26;5.90;92.50
20284;DHT22;10301;50.832;4.080;2022-12-07T02:52:52;5.80;92.20
20284;DHT22;10301;50.832;4.080;2022-12-07T02:55:21;5.80;92.10
20284;DHT22;10301;50.832;4.080;2022-12-07T02:58:11;5.70;91.70
20284;DHT22;10301;50.832;4.080;2022-12-07T03:01:08;5.60;91.40
20284;DHT22;10301;50.832;4.080;2022-12-07T03:03:37;5.60;92.50
20284;DHT22;10301;50.832;4.080;2022-12-07T03:06:10;5.70;92.30
20284;DHT22;10301;50.832;4.080;2022-12-07T03:11:30;5.90;91.30
20284;DHT22;10301;50.832;4.080;2022-12-07T03:14:47;6.00;90.30
20284;DHT22;10301;50.832;4.080;2022-12-07T03:17:02;5.80;87.30
20284;DHT22;10301;50.832;4.080;2022-12-07T03:19:32;5.90;87.10
20284;DHT22;10301;50.832;4.080;2022-12-07T03:22:13;5.70;87.10
20284;DHT22;10301;50.832;4.080;2022-12-07T03:24:52;5.50;89.10
20284;DHT22;10301;50.832;4.080;2022-12-07T03:27:22;5.50;91.00
20284;DHT22;10301;50.832;4.080;2022-12-07T03:29:54;5.60;90.60
20284;DHT22;10301;50.832;4.080;2022-12-07T03:35:21;5.60;90.00
20284;DHT22;10301;50.832;4.080;2022-12-07T03:40:45;5.40;89.40
20284;DHT22;10301;50.832;4.080;2022-12-07T03:43:15;5.30;90.30
20284;DHT22;10301;50.832;4.080;2022-12-07T03:45:44;5.10;91.50
20284;DHT22;10301;50.832;4.080;2022-12-07T03:48:28;4.90;92.60
20284;DHT22;10301;50.832;4.080;2022-12-07T03:53:40;5.20;94.50
20284;DHT22;10301;50.832;4.080;2022-12-07T03:56:09;5.30;93.50
20284;DHT22;10301;50.832;4.080;2022-12-07T03:58:36;5.20;92.90
20284;DHT22;10301;50.832;4.080;2022-12-07T04:01:03;5.20;92.60
20284;DHT22;10301;50.832;4.080;2022-12-07T04:03:31;5.10;92.00
20284;DHT22;10301;50.832;4.080;2022-12-07T04:05:57;5.10;92.20
20284;DHT22;10301;50.832;4.080;2022-12-07T04:08:24;5.10;92.10
20284;DHT22;10301;50.832;4.080;2022-12-07T04:10:50;5.10;91.60
20284;DHT22;10301;50.832;4.080;2022-12-07T04:13:15;5.20;91.00
20284;DHT22;10301;50.832;4.080;2022-12-07T04:15:41;5.20;89.80
20284;DHT22;10301;50.832;4.080;2022-12-07T04:18:07;5.20;88.90
20284;DHT22;10301;50.832;4.080;2022-12-07T04:20:32;5.20;88.00
20284;DHT22;10301;50.832;4.080;2022-12-07T04:22:58;5.10;87.10
20284;DHT22;10301;50.832;4.080;2022-12-07T04:25:23;5.00;88.80
20284;DHT22;10301;50.832;4.080;2022-12-07T04:27:49;4.90;90.50
20284;DHT22;10301;50.832;4.080;2022-12-07T04:30:15;4.80;91.40
20284;DHT22;10301;50.832;4.080;2022-12-07T04:32:41;4.90;91.70
20284;DHT22;10301;50.832;4.080;2022-12-07T04:35:06;5.00;91.70
20284;DHT22;10301;50.832;4.080;2022-12-07T04:37:32;5.00;91.80
20284;DHT22;10301;50.832;4.080;2022-12-07T04:39:58;5.00;91.80
20284;DHT22;10301;50.832;4.080;2022-12-07T04:42:23;5.00;92.00
20284;DHT22;10301;50.832;4.080;2022-12-07T04:44:49;5.00;92.30
20284;DHT22;10301;50.832;4.080;2022-12-07T04:47:19;5.00;92.20
20284;DHT22;10301;50.832;4.080;2022-12-07T04:49:51;4.90;92.30
20284;DHT22;10301;50.832;4.080;2022-12-07T04:52:16;4.80;92.50
20284;DHT22;10301;50.832;4.080;2022-12-07T04:54:42;4.80;92.50
20284;DHT22;10301;50.832;4.080;2022-12-07T04:57:07;4.80;92.70
20284;DHT22;10301;50.832;4.080;2022-12-07T04:59:33;4.90;92.50
20284;DHT22;10301;50.832;4.080;2022-12-07T05:01:58;4.80;92.20
20284;DHT22;10301;50.832;4.080;2022-12-07T05:04:24;4.90;91.70
20284;DHT22;10301;50.832;4.080;2022-12-07T05:06:50;4.80;91.10
20284;DHT22;10301;50.832;4.080;2022-12-07T05:09:15;4.70;91.50
20284;DHT22;10301;50.832;4.080;2022-12-07T05:11:41;4.80;91.90
20284;DHT22;10301;50.832;4.080;2022-12-07T05:14:19;4.80;92.40
20284;DHT22;10301;50.832;4.080;2022-12-07T05:16:46;4.80;92.50
20284;DHT22;10301;50.832;4.080;2022-12-07T05:19:12;4.80;92.80
20284;DHT22;10301;50.832;4.080;2022-12-07T05:21:39;4.80;92.30
20284;DHT22;10301;50.832;4.080;2022-12-07T05:24:05;4.80;92.10
20284;DHT22;10301;50.832;4.080;2022-12-07T05:26:31;4.70;92.70
20284;DHT22;10301;50.832;4.080;2022-12-07T05:28:57;4.90;93.10
20284;DHT22;10301;50.832;4.080;2022-12-07T05:31:24;4.90;92.90
20284;DHT22;10301;50.832;4.080;2022-12-07T05:33:50;5.00;93.30
20284;DHT22;10301;50.832;4.080;2022-12-07T05:36:16;5.00;93.50
20284;DHT22;10301;50.832;4.080;2022-12-07T05:38:42;4.90;93.60
20284;DHT22;10301;50.832;4.080;2022-12-07T05:41:08;5.00;93.60
20284;DHT22;10301;50.832;4.080;2022-12-07T05:43:57;5.00;93.50
20284;DHT22;10301;50.832;4.080;2022-12-07T05:46:23;4.80;93.50
20284;DHT22;10301;50.832;4.080;2022-12-07T05:48:48;4.90;94.10
20284;DHT22;10301;50.832;4.080;2022-12-07T05:51:14;5.00;94.10
20284;DHT22;10301;50.832;4.080;2022-12-07T05:53:39;5.00;94.20
20284;DHT22;10301;50.832;4.080;2022-12-07T05:56:09;5.00;94.30
20284;DHT22;10301;50.832;4.080;2022-12-07T05:58:34;5.00;94.30
20284;DHT22;10301;50.832;4.080;2022-12-07T06:01:18;5.20;94.50
20284;DHT22;10301;50.832;4.080;2022-12-07T06:03:44;5.20;93.80
20284;DHT22;10301;50.832;4.080;2022-12-07T06:06:10;5.30;93.30
20284;DHT22;10301;50.832;4.080;2022-12-07T06:08:39;5.30;93.10
20284;DHT22;10301;50.832;4.080;2022-12-07T06:11:05;5.20;93.40
20284;DHT22;10301;50.832;4.080;2022-12-07T06:13:49;5.30;93.40
20284;DHT22;10301;50.832;4.080;2022-12-07T06:16:15;5.30;93.00
20284;DHT22;10301;50.832;4.080;2022-12-07T06:18:40;5.20;92.60
20284;DHT22;10301;50.832;4.080;2022-12-07T06:21:06;5.00;93.70
20284;DHT22;10301;50.832;4.080;2022-12-07T06:23:32;5.00;94.80
20284;DHT22;10301;50.832;4.080;2022-12-07T06:25:57;4.90;95.60
20284;DHT22;10301;50.832;4.080;2022-12-07T06:28:23;5.20;96.00
20284;DHT22;10301;50.832;4.080;2022-12-07T06:31:00;5.30;95.60
20284;DHT22;10301;50.832;4.080;2022-12-07T06:33:27;5.30;95.30
20284;DHT22;10301;50.832;4.080;2022-12-07T06:35:53;5.40;95.10
20284;DHT22;10301;50.832;4.080;2022-12-07T06:38:19;5.40;94.70
20284;DHT22;10301;50.832;4.080;2022-12-07T06:40:44;5.40;94.40
20284;DHT22;10301;50.832;4.080;2022-12-07T06:43:10;5.30;94.50
20284;DHT22;10301;50.832;4.080;2022-12-07T06:45:36;5.30;94.50
20284;DHT22;10301;50.832;4.080;2022-12-07T06:48:01;5.20;94.30
20284;DHT22;10301;50.832;4.080;2022-12-07T06:50:27;5.30;94.50
20284;DHT22;10301;50.832;4.080;2022-12-07T06:52:52;5.30;93.70
20284;DHT22;10301;50.832;4.080;2022-12-07T06:55:18;5.10;93.50
20284;DHT22;10301;50.832;4.080;2022-12-07T06:57:44;5.20;93.70
20284;DHT22;10301;50.832;4.080;2022-12-07T07:00:10;5.30;93.40
20284;DHT22;10301;50.832;4.080;2022-12-07T07:02:35;5.30;93.00
20284;DHT22;10301;50.832;4.080;2022-12-07T07:05:02;5.40;93.00
20284;DHT22;10301;50.832;4.080;2022-12-07T07:07:28;5.40;93.60
20284;DHT22;10301;50.832;4.080;2022-12-07T07:09:53;5.60;93.10
20284;DHT22;10301;50.832;4.080;2022-12-07T07:12:19;5.60;91.90
20284;DHT22;10301;50.832;4.080;2022-12-07T07:14:45;5.50;91.90
20284;DHT22;10301;50.832;4.080;2022-12-07T07:17:10;5.40;91.70
20284;DHT22;10301;50.832;4.080;2022-12-07T07:19:36;5.40;92.30
20284;DHT22;10301;50.832;4.080;2022-12-07T07:22:03;5.40;92.90
20284;DHT22;10301;50.832;4.080;2022-12-07T07:24:28;5.40;93.20
20284;DHT22;10301;50.832;4.080;2022-12-07T07:26:54;5.50;92.70
20284;DHT22;10301;50.832;4.080;2022-12-07T07:29:20;5.40;92.50
20284;DHT22;10301;50.832;4.080;2022-12-07T07:31:46;5.50;92.50
20284;DHT22;10301;50.832;4.080;2022-12-07T07:34:11;5.60;92.10
20284;DHT22;10301;50.832;4.080;2022-12-07T07:36:37;5.60;91.80
20284;DHT22;10301;50.832;4.080;2022-12-07T07:39:03;5.70;91.80
20284;DHT22;10301;50.832;4.080;2022-12-07T07:41:30;5.50;91.70
20284;DHT22;10301;50.832;4.080;2022-12-07T07:43:56;5.60;92.20
20284;DHT22;10301;50.832;4.080;2022-12-07T07:46:21;5.70;92.40
20284;DHT22;10301;50.832;4.080;2022-12-07T07:48:47;5.70;92.50
20284;DHT22;10301;50.832;4.080;2022-12-07T07:51:13;5.70;92.60
20284;DHT22;10301;50.832;4.080;2022-12-07T07:53:38;5.70;92.80
20284;DHT22;10301;50.832;4.080;2022-12-07T07:56:04;5.80;92.90
20284;DHT22;10301;50.832;4.080;2022-12-07T07:58:30;5.70;92.70
20284;DHT22;10301;50.832;4.080;2022-12-07T08:00:55;5.70;92.60
20284;DHT22;10301;50.832;4.080;2022-12-07T08:03:21;5.70;92.50
20284;DHT22;10301;50.832;4.080;2022-12-07T08:05:47;5.60;91.70
20284;DHT22;10301;50.832;4.080;2022-12-07T08:08:12;5.60;91.60
20284;DHT22;10301;50.832;4.080;2022-12-07T08:10:39;5.60;91.60
20284;DHT22;10301;50.832;4.080;2022-12-07T08:13:05;5.50;91.70
20284;DHT22;10301;50.832;4.080;2022-12-07T08:15:38;5.50;92.30
20284;DHT22;10301;50.832;4.080;2022-12-07T08:18:04;5.50;92.70
20284;DHT22;10301;50.832;4.080;2022-12-07T08:20:31;5.60;93.00
20284;DHT22;10301;50.832;4.080;2022-12-07T08:22:57;5.70;93.20
20284;DHT22;10301;50.832;4.080;2022-12-07T08:25:22;5.60;92.60
20284;DHT22;10301;50.832;4.080;2022-12-07T08:27:49;5.70;93.20
20284;DHT22;10301;50.832;4.080;2022-12-07T08:30:15;5.80;93.10
20284;DHT22;10301;50.832;4.080;2022-12-07T08:32:41;5.70;93.30
20284;DHT22;10301;50.832;4.080;2022-12-07T08:35:07;5.90;93.70
20284;DHT22;10301;50.832;4.080;2022-12-07T08:37:33;6.00;93.90
20284;DHT22;10301;50.832;4.080;2022-12-07T08:39:59;6.10;93.80
20284;DHT22;10301;50.832;4.080;2022-12-07T08:42:25;6.10;93.50
20284;DHT22;10301;50.832;4.080;2022-12-07T08:44:57;6.20;93.50
20284;DHT22;10301;50.832;4.080;2022-12-07T08:47:24;6.20;93.20
20284;DHT22;10301;50.832;4.080;2022-12-07T08:49:52;6.30;93.20
20284;DHT22;10301;50.832;4.080;2022-12-07T08:52:18;6.30;92.40
20284;DHT22;10301;50.832;4.080;2022-12-07T08:54:44;6.30;92.20
20284;DHT22;10301;50.832;4.080;2022-12-07T08:57:11;6.30;92.00
20284;DHT22;10301;50.832;4.080;2022-12-07T08:59:37;6.40;91.80
20284;DHT22;10301;50.832;4.080;2022-12-07T09:02:04;6.50;91.30
20284;DHT22;10301;50.832;4.080;2022-12-07T09:04:30;6.50;90.20
20284;DHT22;10301;50.832;4.080;2022-12-07T09:06:56;6.60;90.00
20284;DHT22;10301;50.832;4.080;2022-12-07T09:09:22;6.50;90.70
20284;DHT22;10301;50.832;4.080;2022-12-07T09:11:48;6.60;90.90
20284;DHT22;10301;50.832;4.080;2022-12-07T09:14:14;6.80;90.90
20284;DHT22;10301;50.832;4.080;2022-12-07T09:16:40;6.80;90.30
20284;DHT22;10301;50.832;4.080;2022-12-07T09:19:05;6.90;89.10
20284;DHT22;10301;50.832;4.080;2022-12-07T09:21:31;6.80;87.10
20284;DHT22;10301;50.832;4.080;2022-12-07T09:23:57;6.80;88.00
20284;DHT22;10301;50.832;4.080;2022-12-07T09:26:22;6.90;89.00
20284;DHT22;10301;50.832;4.080;2022-12-07T09:28:48;7.00;88.00
20284;DHT22;10301;50.832;4.080;2022-12-07T09:31:13;7.00;86.30
20284;DHT22;10301;50.832;4.080;2022-12-07T09:33:39;7.00;86.10
20284;DHT22;10301;50.832;4.080;2022-12-07T09:36:06;7.00;87.50
20284;DHT22;10301;50.832;4.080;2022-12-07T09:38:32;7.10;88.80
20284;DHT22;10301;50.832;4.080;2022-12-07T09:41:06;7.30;89.60
20284;DHT22;10301;50.832;4.080;2022-12-07T09:43:35;7.50;87.70
20284;DHT22;10301;50.832;4.080;2022-12-07T09:46:02;7.60;86.00
20284;DHT22;10301;50.832;4.080;2022-12-07T09:48:32;7.60;85.50
20284;DHT22;10301;50.832;4.080;2022-12-07T09:51:00;7.50;84.70
20284;DHT22;10301;50.832;4.080;2022-12-07T09:55:54;7.60;82.20
20284;DHT22;10301;50.832;4.080;2022-12-07T09:58:28;7.50;83.70
20284;DHT22;10301;50.832;4.080;2022-12-07T10:01:21;7.40;84.00
20284;DHT22;10301;50.832;4.080;2022-12-07T10:03:51;7.50;82.50
20284;DHT22;10301;50.832;4.080;2022-12-07T10:06:18;7.60;80.20
20284;DHT22;10301;50.832;4.080;2022-12-07T10:08:43;7.40;78.90
20284;DHT22;10301;50.832;4.080;2022-12-07T10:11:10;7.30;80.60
20284;DHT22;10301;50.832;4.080;2022-12-07T10:13:54;7.20;84.10
20284;DHT22;10301;50.832;4.080;2022-12-07T10:16:40;7.30;85.90
20284;DHT22;10301;50.832;4.080;2022-12-07T10:22:10;7.30;85.00
20284;DHT22;10301;50.832;4.080;2022-12-07T10:24:38;7.30;82.20
20284;DHT22;10301;50.832;4.080;2022-12-07T10:29:48;7.60;83.90
20284;DHT22;10301;50.832;4.080;2022-12-07T10:34:44;8.00;79.50
20284;DHT22;10301;50.832;4.080;2022-12-07T10:44:48;8.20;70.10
20284;DHT22;10301;50.832;4.080;2022-12-07T10:47:38;8.20;72.90
20284;DHT22;10301;50.832;4.080;2022-12-07T10:53:09;8.10;72.30
20284;DHT22;10301;50.832;4.080;2022-12-07T10:55:56;8.10;74.00
20284;DHT22;10301;50.832;4.080;2022-12-07T11:01:45;8.30;71.60
20284;DHT22;10301;50.832;4.080;2022-12-07T11:04:17;8.50;67.40
20284;DHT22;10301;50.832;4.080;2022-12-07T11:24:01;8.10;68.90
20284;DHT22;10301;50.832;4.080;2022-12-07T11:34:06;8.30;70.00
20284;DHT22;10301;50.832;4.080;2022-12-07T11:36:44;8.30;70.40
20284;DHT22;10301;50.832;4.080;2022-12-07T11:39:36;8.30;71.60
20284;DHT22;10301;50.832;4.080;2022-12-07T11:42:10;8.40;70.80
20284;DHT22;10301;50.832;4.080;2022-12-07T11:48:17;8.40;67.30
20284;DHT22;10301;50.832;4.080;2022-12-07T11:50:47;8.50;69.00
20284;DHT22;10301;50.832;4.080;2022-12-07T11:53:27;8.70;69.20
20284;DHT22;10301;50.832;4.080;2022-12-07T11:56:04;9.00;63.60
20284;DHT22;10301;50.832;4.080;2022-12-07T12:07:23;9.20;50.40
20284;DHT22;10301;50.832;4.080;2022-12-07T12:10:04;9.10;50.00
20284;DHT22;10301;50.832;4.080;2022-12-07T12:15:20;9.00;53.30
20284;DHT22;10301;50.832;4.080;2022-12-07T12:20:41;8.70;63.00
20284;DHT22;10301;50.832;4.080;2022-12-07T12:23:16;8.60;65.30
20284;DHT22;10301;50.832;4.080;2022-12-07T12:25:45;8.50;65.60
20284;DHT22;10301;50.832;4.080;2022-12-07T12:28:37;8.50;68.90
20284;DHT22;10301;50.832;4.080;2022-12-07T12:31:12;8.60;69.10
20284;DHT22;10301;50.832;4.080;2022-12-07T12:33:44;8.60;72.80
20284;DHT22;10301;50.832;4.080;2022-12-07T12:50:18;8.70;60.50
20284;DHT22;10301;50.832;4.080;2022-12-07T13:00:47;9.30;50.60
20284;DHT22;10301;50.832;4.080;2022-12-07T13:03:26;9.30;48.00
20284;DHT22;10301;50.832;4.080;2022-12-07T13:08:49;9.30;46.70
20284;DHT22;10301;50.832;4.080;2022-12-07T13:11:25;9.40;45.30
20284;DHT22;10301;50.832;4.080;2022-12-07T13:16:58;9.10;45.90
20284;DHT22;10301;50.832;4.080;2022-12-07T13:25:21;9.00;44.50
20284;DHT22;10301;50.832;4.080;2022-12-07T13:27:57;8.70;54.60
20284;DHT22;10301;50.832;4.080;2022-12-07T13:30:24;8.70;50.50
20284;DHT22;10301;50.832;4.080;2022-12-07T13:32:58;8.40;57.50
20284;DHT22;10301;50.832;4.080;2022-12-07T13:35:28;8.50;60.50
20284;DHT22;10301;50.832;4.080;2022-12-07T13:37:54;8.60;58.10
20284;DHT22;10301;50.832;4.080;2022-12-07T13:40:21;8.70;55.80
20284;DHT22;10301;50.832;4.080;2022-12-07T13:42:47;8.70;55.50
20284;DHT22;10301;50.832;4.080;2022-12-07T13:45:32;8.70;58.20
20284;DHT22;10301;50.832;4.080;2022-12-07T13:48:33;8.70;58.00
20284;DHT22;10301;50.832;4.080;2022-12-07T13:51:02;8.70;53.40
20284;DHT22;10301;50.832;4.080;2022-12-07T13:53:28;8.70;55.90
20284;DHT22;10301;50.832;4.080;2022-12-07T13:55:58;8.60;54.00
20284;DHT22;10301;50.832;4.080;2022-12-07T13:58:24;8.70;53.70
20284;DHT22;10301;50.832;4.080;2022-12-07T14:00:50;8.60;50.70
20284;DHT22;10301;50.832;4.080;2022-12-07T14:05:44;8.70;55.50
20284;DHT22;10301;50.832;4.080;2022-12-07T14:10:40;8.60;48.70
20284;DHT22;10301;50.832;4.080;2022-12-07T14:16:05;8.60;50.40
20284;DHT22;10301;50.832;4.080;2022-12-07T14:18:38;8.70;52.50
20284;DHT22;10301;50.832;4.080;2022-12-07T14:21:17;9.00;42.10
20284;DHT22;10301;50.832;4.080;2022-12-07T14:23:44;9.10;37.60
20284;DHT22;10301;50.832;4.080;2022-12-07T14:26:20;8.90;45.40
20284;DHT22;10301;50.832;4.080;2022-12-07T14:28:46;8.90;44.80
20284;DHT22;10301;50.832;4.080;2022-12-07T14:31:16;8.70;47.90
20284;DHT22;10301;50.832;4.080;2022-12-07T14:33:43;8.70;50.40
20284;DHT22;10301;50.832;4.080;2022-12-07T14:36:10;8.50;53.30
20284;DHT22;10301;50.832;4.080;2022-12-07T14:38:36;8.60;53.40
20284;DHT22;10301;50.832;4.080;2022-12-07T14:41:15;8.50;49.70
20284;DHT22;10301;50.832;4.080;2022-12-07T14:44:04;8.50;48.20
20284;DHT22;10301;50.832;4.080;2022-12-07T14:46:33;8.50;46.20
20284;DHT22;10301;50.832;4.080;2022-12-07T14:48:59;8.50;46.00
20284;DHT22;10301;50.832;4.080;2022-12-07T14:51:24;8.40;46.10
20284;DHT22;10301;50.832;4.080;2022-12-07T14:53:51;8.40;44.80
20284;DHT22;10301;50.832;4.080;2022-12-07T14:56:17;8.50;46.10
20284;DHT22;10301;50.832;4.080;2022-12-07T14:58:42;8.60;45.60
20284;DHT22;10301;50.832;4.080;2022-12-07T15:01:08;8.70;47.10
20284;DHT22;10301;50.832;4.080;2022-12-07T15:03:34;8.70;44.50
20284;DHT22;10301;50.832;4.080;2022-12-07T15:06:00;8.70;43.40
20284;DHT22;10301;50.832;4.080;2022-12-07T15:08:26;8.80;40.30
20284;DHT22;10301;50.832;4.080;2022-12-07T15:10:52;8.90;36.00
20284;DHT22;10301;50.832;4.080;2022-12-07T15:13:18;8.80;36.40
20284;DHT22;10301;50.832;4.080;2022-12-07T15:16:02;8.70;40.90
20284;DHT22;10301;50.832;4.080;2022-12-07T15:18:27;8.80;33.40
20284;DHT22;10301;50.832;4.080;2022-12-07T15:20:53;8.90;33.50
20284;DHT22;10301;50.832;4.080;2022-12-07T15:23:19;8.80;35.90
20284;DHT22;10301;50.832;4.080;2022-12-07T15:25:46;8.60;43.20
20284;DHT22;10301;50.832;4.080;2022-12-07T15:28:13;8.60;46.80
20284;DHT22;10301;50.832;4.080;2022-12-07T15:30:41;8.60;50.00
20284;DHT22;10301;50.832;4.080;2022-12-07T15:33:08;8.40;52.30
20284;DHT22;10301;50.832;4.080;2022-12-07T15:35:39;8.30;59.80
20284;DHT22;10301;50.832;4.080;2022-12-07T15:38:04;8.40;58.90
20284;DHT22;10301;50.832;4.080;2022-12-07T15:40:30;8.40;58.20
20284;DHT22;10301;50.832;4.080;2022-12-07T15:42:56;8.20;63.30
20284;DHT22;10301;50.832;4.080;2022-12-07T15:45:22;8.20;55.80
20284;DHT22;10301;50.832;4.080;2022-12-07T15:47:48;8.10;60.90
20284;DHT22;10301;50.832;4.080;2022-12-07T15:50:15;8.00;66.00
20284;DHT22;10301;50.832;4.080;2022-12-07T15:52:41;7.90;67.60
20284;DHT22;10301;50.832;4.080;2022-12-07T15:55:08;7.90;66.80
20284;DHT22;10301;50.832;4.080;2022-12-07T15:57:36;7.80;69.60
20284;DHT22;10301;50.832;4.080;2022-12-07T16:00:06;7.80;72.40
20284;DHT22;10301;50.832;4.080;2022-12-07T16:02:32;7.80;74.20
20284;DHT22;10301;50.832;4.080;2022-12-07T16:04:57;7.80;74.60
20284;DHT22;10301;50.832;4.080;2022-12-07T16:07:23;7.70;72.50
20284;DHT22;10301;50.832;4.080;2022-12-07T16:09:49;7.80;72.80
20284;DHT22;10301;50.832;4.080;2022-12-07T16:12:17;7.80;69.70
20284;DHT22;10301;50.832;4.080;2022-12-07T16:14:43;7.70;72.10
20284;DHT22;10301;50.832;4.080;2022-12-07T16:17:09;7.60;75.10
20284;DHT22;10301;50.832;4.080;2022-12-07T16:19:36;7.60;76.70
20284;DHT22;10301;50.832;4.080;2022-12-07T16:22:02;7.60;78.40
20284;DHT22;10301;50.832;4.080;2022-12-07T16:24:30;7.60;79.40
20284;DHT22;10301;50.832;4.080;2022-12-07T16:26:56;7.60;78.00
20284;DHT22;10301;50.832;4.080;2022-12-07T16:29:22;7.60;77.60
20284;DHT22;10301;50.832;4.080;2022-12-07T16:31:48;7.60;76.70
20284;DHT22;10301;50.832;4.080;2022-12-07T16:34:14;7.40;76.90
20284;DHT22;10301;50.832;4.080;2022-12-07T16:36:40;7.40;78.50
20284;DHT22;10301;50.832;4.080;2022-12-07T16:39:06;7.30;77.90
20284;DHT22;10301;50.832;4.080;2022-12-07T16:41:32;7.20;79.00
20284;DHT22;10301;50.832;4.080;2022-12-07T16:44:02;7.10;80.80
20284;DHT22;10301;50.832;4.080;2022-12-07T16:46:28;7.10;81.40
20284;DHT22;10301;50.832;4.080;2022-12-07T16:48:55;7.00;81.80
20284;DHT22;10301;50.832;4.080;2022-12-07T16:51:21;7.00;82.30
20284;DHT22;10301;50.832;4.080;2022-12-07T16:53:46;7.00;83.40
20284;DHT22;10301;50.832;4.080;2022-12-07T16:56:14;6.90;83.70
20284;DHT22;10301;50.832;4.080;2022-12-07T16:58:43;6.90;84.10
20284;DHT22;10301;50.832;4.080;2022-12-07T17:01:15;6.80;84.70
20284;DHT22;10301;50.832;4.080;2022-12-07T17:03:42;6.80;86.00
20284;DHT22;10301;50.832;4.080;2022-12-07T17:06:13;6.70;86.70
20284;DHT22;10301;50.832;4.080;2022-12-07T17:08:39;6.60;88.50
20284;DHT22;10301;50.832;4.080;2022-12-07T17:13:44;6.80;90.00
20284;DHT22;10301;50.832;4.080;2022-12-07T17:16:29;6.60;90.20
20284;DHT22;10301;50.832;4.080;2022-12-07T17:18:55;6.80;90.50
20284;DHT22;10301;50.832;4.080;2022-12-07T17:21:21;6.90;88.20
20284;DHT22;10301;50.832;4.080;2022-12-07T17:23:48;7.00;85.30
20284;DHT22;10301;50.832;4.080;2022-12-07T17:26:17;7.00;83.40
20284;DHT22;10301;50.832;4.080;2022-12-07T17:28:43;7.10;82.40
20284;DHT22;10301;50.832;4.080;2022-12-07T17:31:15;6.90;84.00
20284;DHT22;10301;50.832;4.080;2022-12-07T17:33:41;7.00;84.50
20284;DHT22;10301;50.832;4.080;2022-12-07T17:36:11;6.90;84.70
20284;DHT22;10301;50.832;4.080;2022-12-07T17:38:37;7.00;87.00
20284;DHT22;10301;50.832;4.080;2022-12-07T17:41:11;7.00;86.70
20284;DHT22;10301;50.832;4.080;2022-12-07T17:43:38;7.10;85.20
20284;DHT22;10301;50.832;4.080;2022-12-07T17:46:08;7.00;83.70
20284;DHT22;10301;50.832;4.080;2022-12-07T17:48:34;7.20;83.20
20284;DHT22;10301;50.832;4.080;2022-12-07T17:51:00;7.20;82.80
20284;DHT22;10301;50.832;4.080;2022-12-07T17:53:48;7.10;83.00
20284;DHT22;10301;50.832;4.080;2022-12-07T17:56:14;7.10;82.80
20284;DHT22;10301;50.832;4.080;2022-12-07T17:58:40;7.00;84.10
20284;DHT22;10301;50.832;4.080;2022-12-07T18:01:09;6.90;85.00
20284;DHT22;10301;50.832;4.080;2022-12-07T18:03:35;7.00;86.80
20284;DHT22;10301;50.832;4.080;2022-12-07T18:06:00;6.90;86.60
20284;DHT22;10301;50.832;4.080;2022-12-07T18:08:26;6.90;86.30
20284;DHT22;10301;50.832;4.080;2022-12-07T18:10:59;6.90;87.00
20284;DHT22;10301;50.832;4.080;2022-12-07T18:13:25;6.80;86.80
20284;DHT22;10301;50.832;4.080;2022-12-07T18:16:23;6.50;86.10